sensor_id;sensor_type;location;lat;lon;timestamp;P1;durP1;ratioP1;P2;durP2;ratioP2
72085;SDS011;64750;52.134;5.424;2023-03-01T00:02:00;7.75;;;6.47;;
72085;SDS011;64750;52.134;5.424;2023-03-01T00:04:27;8.97;;;6.47;;
72085;SDS011;64750;52.134;5.424;2023-03-01T00:06:54;7.32;;;6.60;;
72085;SDS011;64750;52.134;5.424;2023-03-01T00:09:21;9.20;;;6.95;;
72085;SDS011;64750;52.134;5.424;2023-03-01T00:11:47;7.60;;;6.82;;
72085;SDS011;64750;52.134;5.424;2023-03-01T00:14:14;7.80;;;7.00;;
72085;SDS011;64750;52.134;5.424;2023-03-01T00:16:43;8.13;;;7.20;;
72085;SDS011;64750;52.134;5.424;2023-03-01T00:19:14;8.05;;;7.25;;
72085;SDS011;64750;52.134;5.424;2023-03-01T00:21:41;7.88;;;6.80;;
72085;SDS011;64750;52.134;5.424;2023-03-01T00:24:08;9.30;;;7.05;;
72085;SDS011;64750;52.134;5.424;2023-03-01T00:26:36;8.07;;;7.38;;
72085;SDS011;64750;52.134;5.424;2023-03-01T00:29:02;13.97;;;7.87;;
72085;SDS011;64750;52.134;5.424;2023-03-01T00:31:30;8.98;;;7.85;;
72085;SDS011;64750;52.134;5.424;2023-03-01T00:33:58;9.77;;;7.38;;
72085;SDS011;64750;52.134;5.424;2023-03-01T00:36:28;8.18;;;7.30;;
72085;SDS011;64750;52.134;5.424;2023-03-01T00:38:57;9.23;;;7.57;;
72085;SDS011;64750;52.134;5.424;2023-03-01T00:41:24;8.50;;;7.60;;
72085;SDS011;64750;52.134;5.424;2023-03-01T00:43:52;8.15;;;7.28;;
72085;SDS011;64750;52.134;5.424;2023-03-01T00:46:20;18.77;;;7.55;;
72085;SDS011;64750;52.134;5.424;2023-03-01T00:48:48;7.95;;;7.25;;
72085;SDS011;64750;52.134;5.424;2023-03-01T00:53:43;9.37;;;6.83;;
72085;SDS011;64750;52.134;5.424;2023-03-01T00:56:11;8.30;;;7.50;;
72085;SDS011;64750;52.134;5.424;2023-03-01T00:58:38;8.05;;;7.10;;
72085;SDS011;64750;52.134;5.424;2023-03-01T01:01:09;8.93;;;7.45;;
72085;SDS011;64750;52.134;5.424;2023-03-01T01:03:48;8.38;;;7.55;;
72085;SDS011;64750;52.134;5.424;2023-03-01T01:06:21;9.83;;;7.37;;
72085;SDS011;64750;52.134;5.424;2023-03-01T01:08:52;9.05;;;7.07;;
72085;SDS011;64750;52.134;5.424;2023-03-01T01:11:19;8.02;;;7.30;;
72085;SDS011;64750;52.134;5.424;2023-03-01T01:13:47;10.00;;;7.10;;
72085;SDS011;64750;52.134;5.424;2023-03-01T01:16:14;8.95;;;7.00;;
72085;SDS011;64750;52.134;5.424;2023-03-01T01:18:43;8.00;;;7.20;;
72085;SDS011;64750;52.134;5.424;2023-03-01T01:21:11;9.27;;;7.38;;
72085;SDS011;64750;52.134;5.424;2023-03-01T01:23:40;10.55;;;7.53;;
72085;SDS011;64750;52.134;5.424;2023-03-01T01:26:08;8.80;;;7.47;;
72085;SDS011;64750;52.134;5.424;2023-03-01T01:28:39;8.85;;;7.50;;
72085;SDS011;64750;52.134;5.424;2023-03-01T01:31:06;9.87;;;7.77;;
72085;SDS011;64750;52.134;5.424;2023-03-01T01:33:33;9.43;;;7.53;;
72085;SDS011;64750;52.134;5.424;2023-03-01T01:36:02;8.45;;;7.57;;
72085;SDS011;64750;52.134;5.424;2023-03-01T01:38:28;10.18;;;8.40;;
72085;SDS011;64750;52.134;5.424;2023-03-01T01:40:55;11.13;;;8.57;;
72085;SDS011;64750;52.134;5.424;2023-03-01T01:45:50;11.57;;;7.82;;
72085;SDS011;64750;52.134;5.424;2023-03-01T01:48:20;12.02;;;9.35;;
72085;SDS011;64750;52.134;5.424;2023-03-01T01:50:52;9.55;;;8.65;;
72085;SDS011;64750;52.134;5.424;2023-03-01T01:53:23;11.98;;;8.95;;
72085;SDS011;64750;52.134;5.424;2023-03-01T01:55:56;9.40;;;8.13;;
72085;SDS011;64750;52.134;5.424;2023-03-01T01:58:26;9.98;;;8.15;;
72085;SDS011;64750;52.134;5.424;2023-03-01T02:00:55;11.95;;;8.90;;
72085;SDS011;64750;52.134;5.424;2023-03-01T02:03:23;12.77;;;9.13;;
72085;SDS011;64750;52.134;5.424;2023-03-01T02:08:26;12.03;;;8.80;;
72085;SDS011;64750;52.134;5.424;2023-03-01T02:10:56;8.93;;;8.02;;
72085;SDS011;64750;52.134;5.424;2023-03-01T02:13:26;8.98;;;8.00;;
72085;SDS011;64750;52.134;5.424;2023-03-01T02:15:52;11.82;;;8.02;;
72085;SDS011;64750;52.134;5.424;2023-03-01T02:18:20;9.02;;;8.07;;
72085;SDS011;64750;52.134;5.424;2023-03-01T02:20:59;11.77;;;8.23;;
72085;SDS011;64750;52.134;5.424;2023-03-01T02:23:44;11.93;;;8.00;;
72085;SDS011;64750;52.134;5.424;2023-03-01T02:26:14;9.60;;;8.27;;
72085;SDS011;64750;52.134;5.424;2023-03-01T02:28:46;8.40;;;7.55;;
72085;SDS011;64750;52.134;5.424;2023-03-01T02:31:17;10.10;;;7.88;;
72085;SDS011;64750;52.134;5.424;2023-03-01T02:34:05;9.03;;;7.93;;
72085;SDS011;64750;52.134;5.424;2023-03-01T02:36:38;11.80;;;8.23;;
72085;SDS011;64750;52.134;5.424;2023-03-01T02:39:07;12.25;;;8.50;;
72085;SDS011;64750;52.134;5.424;2023-03-01T02:41:41;8.38;;;7.50;;
72085;SDS011;64750;52.134;5.424;2023-03-01T02:44:10;11.70;;;7.82;;
72085;SDS011;64750;52.134;5.424;2023-03-01T02:46:42;12.20;;;8.27;;
72085;SDS011;64750;52.134;5.424;2023-03-01T02:52:13;10.15;;;7.63;;
72085;SDS011;64750;52.134;5.424;2023-03-01T02:54:55;10.85;;;7.78;;
72085;SDS011;64750;52.134;5.424;2023-03-01T02:57:24;8.88;;;7.97;;
72085;SDS011;64750;52.134;5.424;2023-03-01T02:59:54;8.80;;;7.80;;
72085;SDS011;64750;52.134;5.424;2023-03-01T03:02:26;9.65;;;8.00;;
72085;SDS011;64750;52.134;5.424;2023-03-01T03:07:33;9.38;;;7.80;;
72085;SDS011;64750;52.134;5.424;2023-03-01T03:10:00;10.85;;;7.72;;
72085;SDS011;64750;52.134;5.424;2023-03-01T03:12:28;9.87;;;7.53;;
72085;SDS011;64750;52.134;5.424;2023-03-01T03:14:54;8.55;;;7.63;;
72085;SDS011;64750;52.134;5.424;2023-03-01T03:17:21;9.55;;;8.38;;
72085;SDS011;64750;52.134;5.424;2023-03-01T03:19:47;8.68;;;7.88;;
72085;SDS011;64750;52.134;5.424;2023-03-01T03:22:14;11.30;;;7.43;;
72085;SDS011;64750;52.134;5.424;2023-03-01T03:24:40;9.50;;;8.50;;
72085;SDS011;64750;52.134;5.424;2023-03-01T03:27:07;8.75;;;7.97;;
72085;SDS011;64750;52.134;5.424;2023-03-01T03:29:33;11.07;;;8.30;;
72085;SDS011;64750;52.134;5.424;2023-03-01T03:32:00;10.55;;;8.00;;
72085;SDS011;64750;52.134;5.424;2023-03-01T03:34:26;10.85;;;8.10;;
72085;SDS011;64750;52.134;5.424;2023-03-01T03:36:53;11.17;;;8.40;;
72085;SDS011;64750;52.134;5.424;2023-03-01T03:39:23;10.40;;;7.90;;
72085;SDS011;64750;52.134;5.424;2023-03-01T03:41:49;10.00;;;7.57;;
72085;SDS011;64750;52.134;5.424;2023-03-01T03:44:16;8.43;;;7.72;;
72085;SDS011;64750;52.134;5.424;2023-03-01T03:46:42;9.32;;;7.82;;
72085;SDS011;64750;52.134;5.424;2023-03-01T03:49:09;10.37;;;8.63;;
72085;SDS011;64750;52.134;5.424;2023-03-01T03:51:35;11.65;;;8.50;;
72085;SDS011;64750;52.134;5.424;2023-03-01T03:54:02;9.95;;;7.82;;
72085;SDS011;64750;52.134;5.424;2023-03-01T03:56:28;10.80;;;8.00;;
72085;SDS011;64750;52.134;5.424;2023-03-01T03:58:55;9.20;;;8.15;;
72085;SDS011;64750;52.134;5.424;2023-03-01T04:01:22;8.97;;;7.97;;
72085;SDS011;64750;52.134;5.424;2023-03-01T04:03:48;8.40;;;7.70;;
72085;SDS011;64750;52.134;5.424;2023-03-01T04:06:14;10.05;;;8.15;;
72085;SDS011;64750;52.134;5.424;2023-03-01T04:08:41;9.32;;;8.52;;
72085;SDS011;64750;52.134;5.424;2023-03-01T04:11:08;9.30;;;7.85;;
72085;SDS011;64750;52.134;5.424;2023-03-01T04:13:54;9.43;;;7.53;;
72085;SDS011;64750;52.134;5.424;2023-03-01T04:16:22;8.25;;;7.47;;
72085;SDS011;64750;52.134;5.424;2023-03-01T04:18:50;10.80;;;8.27;;
72085;SDS011;64750;52.134;5.424;2023-03-01T04:21:16;8.15;;;7.35;;
72085;SDS011;64750;52.134;5.424;2023-03-01T04:23:43;9.25;;;8.27;;
72085;SDS011;64750;52.134;5.424;2023-03-01T04:26:09;8.60;;;7.77;;
72085;SDS011;64750;52.134;5.424;2023-03-01T04:28:37;9.40;;;8.05;;
72085;SDS011;64750;52.134;5.424;2023-03-01T04:31:07;12.93;;;8.38;;
72085;SDS011;64750;52.134;5.424;2023-03-01T04:33:46;13.57;;;8.93;;
72085;SDS011;64750;52.134;5.424;2023-03-01T04:36:19;9.88;;;7.93;;
72085;SDS011;64750;52.134;5.424;2023-03-01T04:38:50;9.47;;;8.57;;
72085;SDS011;64750;52.134;5.424;2023-03-01T04:41:18;9.88;;;8.02;;
72085;SDS011;64750;52.134;5.424;2023-03-01T04:43:46;16.15;;;8.80;;
72085;SDS011;64750;52.134;5.424;2023-03-01T04:46:15;11.60;;;8.73;;
72085;SDS011;64750;52.134;5.424;2023-03-01T04:48:44;9.10;;;8.02;;
72085;SDS011;64750;52.134;5.424;2023-03-01T04:51:11;12.60;;;7.33;;
72085;SDS011;64750;52.134;5.424;2023-03-01T04:53:41;8.75;;;7.95;;
72085;SDS011;64750;52.134;5.424;2023-03-01T04:56:08;10.43;;;8.30;;
72085;SDS011;64750;52.134;5.424;2023-03-01T04:58:35;8.93;;;7.97;;
72085;SDS011;64750;52.134;5.424;2023-03-01T05:01:07;8.57;;;7.78;;
72085;SDS011;64750;52.134;5.424;2023-03-01T05:03:41;8.90;;;8.10;;
72085;SDS011;64750;52.134;5.424;2023-03-01T05:06:12;8.40;;;7.60;;
72085;SDS011;64750;52.134;5.424;2023-03-01T05:08:39;9.65;;;8.07;;
72085;SDS011;64750;52.134;5.424;2023-03-01T05:11:07;8.98;;;8.05;;
72085;SDS011;64750;52.134;5.424;2023-03-01T05:13:37;13.05;;;8.30;;
72085;SDS011;64750;52.134;5.424;2023-03-01T05:16:05;9.17;;;7.97;;
72085;SDS011;64750;52.134;5.424;2023-03-01T05:18:33;15.57;;;7.30;;
72085;SDS011;64750;52.134;5.424;2023-03-01T05:21:06;9.82;;;7.95;;
72085;SDS011;64750;52.134;5.424;2023-03-01T05:23:38;8.45;;;7.18;;
72085;SDS011;64750;52.134;5.424;2023-03-01T05:26:05;9.00;;;8.18;;
72085;SDS011;64750;52.134;5.424;2023-03-01T05:28:36;12.20;;;8.23;;
72085;SDS011;64750;52.134;5.424;2023-03-01T05:31:04;9.00;;;8.18;;
72085;SDS011;64750;52.134;5.424;2023-03-01T05:33:36;9.23;;;8.13;;
72085;SDS011;64750;52.134;5.424;2023-03-01T05:36:04;11.25;;;8.35;;
72085;SDS011;64750;52.134;5.424;2023-03-01T05:38:32;9.90;;;8.32;;
72085;SDS011;64750;52.134;5.424;2023-03-01T05:40:59;7.77;;;7.07;;
72085;SDS011;64750;52.134;5.424;2023-03-01T05:43:25;10.05;;;8.60;;
72085;SDS011;64750;52.134;5.424;2023-03-01T05:45:52;9.70;;;8.48;;
72085;SDS011;64750;52.134;5.424;2023-03-01T05:48:18;12.07;;;7.72;;
72085;SDS011;64750;52.134;5.424;2023-03-01T05:50:45;8.77;;;7.38;;
72085;SDS011;64750;52.134;5.424;2023-03-01T05:53:14;9.40;;;8.30;;
72085;SDS011;64750;52.134;5.424;2023-03-01T05:55:43;11.43;;;8.82;;
72085;SDS011;64750;52.134;5.424;2023-03-01T05:58:11;12.15;;;9.10;;
72085;SDS011;64750;52.134;5.424;2023-03-01T06:00:40;9.38;;;8.48;;
72085;SDS011;64750;52.134;5.424;2023-03-01T06:03:09;9.57;;;8.57;;
72085;SDS011;64750;52.134;5.424;2023-03-01T06:05:36;11.07;;;8.73;;
72085;SDS011;64750;52.134;5.424;2023-03-01T06:08:03;10.75;;;8.63;;
72085;SDS011;64750;52.134;5.424;2023-03-01T06:10:29;10.18;;;8.77;;
72085;SDS011;64750;52.134;5.424;2023-03-01T06:12:56;9.27;;;8.10;;
72085;SDS011;64750;52.134;5.424;2023-03-01T06:15:22;10.13;;;8.75;;
72085;SDS011;64750;52.134;5.424;2023-03-01T06:17:50;8.80;;;8.10;;
72085;SDS011;64750;52.134;5.424;2023-03-01T06:20:18;10.27;;;9.07;;
72085;SDS011;64750;52.134;5.424;2023-03-01T06:22:47;9.70;;;8.73;;
72085;SDS011;64750;52.134;5.424;2023-03-01T06:25:16;9.05;;;8.15;;
72085;SDS011;64750;52.134;5.424;2023-03-01T06:27:45;9.32;;;8.40;;
72085;SDS011;64750;52.134;5.424;2023-03-01T06:30:13;11.37;;;8.77;;
72085;SDS011;64750;52.134;5.424;2023-03-01T06:32:41;10.02;;;8.32;;
72085;SDS011;64750;52.134;5.424;2023-03-01T06:35:11;15.63;;;9.23;;
72085;SDS011;64750;52.134;5.424;2023-03-01T06:37:39;14.60;;;9.30;;
72085;SDS011;64750;52.134;5.424;2023-03-01T06:40:07;11.43;;;8.68;;
72085;SDS011;64750;52.134;5.424;2023-03-01T06:42:35;12.63;;;8.73;;
72085;SDS011;64750;52.134;5.424;2023-03-01T06:45:02;9.45;;;8.55;;
72085;SDS011;64750;52.134;5.424;2023-03-01T06:47:29;9.45;;;8.48;;
72085;SDS011;64750;52.134;5.424;2023-03-01T06:49:55;10.07;;;9.05;;
72085;SDS011;64750;52.134;5.424;2023-03-01T06:52:21;10.27;;;9.20;;
72085;SDS011;64750;52.134;5.424;2023-03-01T06:54:48;11.43;;;8.63;;
72085;SDS011;64750;52.134;5.424;2023-03-01T06:57:14;12.65;;;9.25;;
72085;SDS011;64750;52.134;5.424;2023-03-01T06:59:41;9.35;;;8.38;;
72085;SDS011;64750;52.134;5.424;2023-03-01T07:02:09;11.43;;;8.45;;
72085;SDS011;64750;52.134;5.424;2023-03-01T07:04:37;11.93;;;7.82;;
72085;SDS011;64750;52.134;5.424;2023-03-01T07:07:04;14.10;;;9.13;;
72085;SDS011;64750;52.134;5.424;2023-03-01T07:09:31;12.18;;;8.35;;
72085;SDS011;64750;52.134;5.424;2023-03-01T07:11:58;11.40;;;8.15;;
72085;SDS011;64750;52.134;5.424;2023-03-01T07:14:24;11.27;;;8.52;;
72085;SDS011;64750;52.134;5.424;2023-03-01T07:16:52;10.75;;;9.70;;
72085;SDS011;64750;52.134;5.424;2023-03-01T07:19:18;12.33;;;8.70;;
72085;SDS011;64750;52.134;5.424;2023-03-01T07:21:45;13.20;;;8.75;;
72085;SDS011;64750;52.134;5.424;2023-03-01T07:24:12;11.30;;;9.73;;
72085;SDS011;64750;52.134;5.424;2023-03-01T07:26:38;12.82;;;10.05;;
72085;SDS011;64750;52.134;5.424;2023-03-01T07:29:05;13.70;;;10.77;;
72085;SDS011;64750;52.134;5.424;2023-03-01T07:31:33;16.57;;;10.27;;
72085;SDS011;64750;52.134;5.424;2023-03-01T07:34:00;14.57;;;10.10;;
72085;SDS011;64750;52.134;5.424;2023-03-01T07:36:26;16.42;;;11.80;;
72085;SDS011;64750;52.134;5.424;2023-03-01T07:38:52;13.48;;;10.38;;
72085;SDS011;64750;52.134;5.424;2023-03-01T07:41:21;13.95;;;10.73;;
72085;SDS011;64750;52.134;5.424;2023-03-01T07:43:48;15.27;;;10.30;;
72085;SDS011;64750;52.134;5.424;2023-03-01T07:46:14;15.32;;;10.98;;
72085;SDS011;64750;52.134;5.424;2023-03-01T07:48:41;14.07;;;10.75;;
72085;SDS011;64750;52.134;5.424;2023-03-01T07:51:07;10.98;;;9.75;;
72085;SDS011;64750;52.134;5.424;2023-03-01T07:53:33;11.48;;;10.27;;
72085;SDS011;64750;52.134;5.424;2023-03-01T07:56:04;14.20;;;10.07;;
72085;SDS011;64750;52.134;5.424;2023-03-01T07:58:33;17.58;;;11.23;;
72085;SDS011;64750;52.134;5.424;2023-03-01T08:01:04;14.18;;;10.27;;
72085;SDS011;64750;52.134;5.424;2023-03-01T08:03:32;14.55;;;11.63;;
72085;SDS011;64750;52.134;5.424;2023-03-01T08:05:59;14.70;;;10.65;;
72085;SDS011;64750;52.134;5.424;2023-03-01T08:08:26;16.23;;;11.13;;
72085;SDS011;64750;52.134;5.424;2023-03-01T08:10:55;12.30;;;10.40;;
72085;SDS011;64750;52.134;5.424;2023-03-01T08:13:23;15.18;;;10.50;;
72085;SDS011;64750;52.134;5.424;2023-03-01T08:15:49;11.82;;;9.98;;
72085;SDS011;64750;52.134;5.424;2023-03-01T08:18:16;17.25;;;10.15;;
72085;SDS011;64750;52.134;5.424;2023-03-01T08:20:44;10.37;;;9.23;;
72085;SDS011;64750;52.134;5.424;2023-03-01T08:23:10;11.02;;;9.43;;
72085;SDS011;64750;52.134;5.424;2023-03-01T08:25:37;12.75;;;9.20;;
72085;SDS011;64750;52.134;5.424;2023-03-01T08:28:04;10.27;;;8.05;;
72085;SDS011;64750;52.134;5.424;2023-03-01T08:30:31;8.65;;;7.72;;
72085;SDS011;64750;52.134;5.424;2023-03-01T08:32:59;8.37;;;7.57;;
72085;SDS011;64750;52.134;5.424;2023-03-01T08:35:25;9.57;;;7.70;;
72085;SDS011;64750;52.134;5.424;2023-03-01T08:37:51;10.25;;;7.38;;
72085;SDS011;64750;52.134;5.424;2023-03-01T08:40:18;7.18;;;6.53;;
72085;SDS011;64750;52.134;5.424;2023-03-01T08:42:44;8.10;;;6.72;;
72085;SDS011;64750;52.134;5.424;2023-03-01T08:45:12;9.00;;;6.90;;
72085;SDS011;64750;52.134;5.424;2023-03-01T08:47:40;7.25;;;6.55;;
72085;SDS011;64750;52.134;5.424;2023-03-01T08:50:06;6.55;;;6.03;;
72085;SDS011;64750;52.134;5.424;2023-03-01T08:52:33;7.85;;;6.95;;
72085;SDS011;64750;52.134;5.424;2023-03-01T08:55:00;8.23;;;6.38;;
72085;SDS011;64750;52.134;5.424;2023-03-01T08:57:27;7.63;;;6.10;;
72085;SDS011;64750;52.134;5.424;2023-03-01T08:59:54;6.75;;;6.03;;
72085;SDS011;64750;52.134;5.424;2023-03-01T09:02:22;6.18;;;5.43;;
72085;SDS011;64750;52.134;5.424;2023-03-01T09:04:48;6.82;;;4.88;;
72085;SDS011;64750;52.134;5.424;2023-03-01T09:07:15;5.40;;;4.97;;
72085;SDS011;64750;52.134;5.424;2023-03-01T09:09:41;7.13;;;5.47;;
72085;SDS011;64750;52.134;5.424;2023-03-01T09:12:08;7.70;;;5.88;;
72085;SDS011;64750;52.134;5.424;2023-03-01T09:14:34;7.05;;;5.28;;
72085;SDS011;64750;52.134;5.424;2023-03-01T09:17:03;5.53;;;5.03;;
72085;SDS011;64750;52.134;5.424;2023-03-01T09:19:29;5.47;;;4.88;;
72085;SDS011;64750;52.134;5.424;2023-03-01T09:21:56;6.27;;;5.40;;
72085;SDS011;64750;52.134;5.424;2023-03-01T09:24:24;4.55;;;4.15;;
72085;SDS011;64750;52.134;5.424;2023-03-01T09:26:55;5.78;;;5.22;;
72085;SDS011;64750;52.134;5.424;2023-03-01T09:29:22;6.68;;;5.47;;
72085;SDS011;64750;52.134;5.424;2023-03-01T09:31:48;6.85;;;4.40;;
72085;SDS011;64750;52.134;5.424;2023-03-01T09:34:15;4.63;;;4.23;;
72085;SDS011;64750;52.134;5.424;2023-03-01T09:36:45;5.30;;;4.80;;
72085;SDS011;64750;52.134;5.424;2023-03-01T09:39:11;6.10;;;4.47;;
72085;SDS011;64750;52.134;5.424;2023-03-01T09:44:43;4.82;;;3.92;;
72085;SDS011;64750;52.134;5.424;2023-03-01T09:47:21;4.67;;;4.07;;
72085;SDS011;64750;52.134;5.424;2023-03-01T09:52:45;5.00;;;4.03;;
72085;SDS011;64750;52.134;5.424;2023-03-01T09:55:26;3.83;;;3.53;;
72085;SDS011;64750;52.134;5.424;2023-03-01T10:09:36;5.78;;;2.95;;
72085;SDS011;64750;52.134;5.424;2023-03-01T10:12:08;3.10;;;2.80;;
72085;SDS011;64750;52.134;5.424;2023-03-01T10:15:01;3.27;;;2.63;;
72085;SDS011;64750;52.134;5.424;2023-03-01T10:17:39;6.45;;;2.72;;
72085;SDS011;64750;52.134;5.424;2023-03-01T10:20:28;5.47;;;2.80;;
72085;SDS011;64750;52.134;5.424;2023-03-01T10:23:03;2.85;;;2.65;;
72085;SDS011;64750;52.134;5.424;2023-03-01T10:25:36;3.70;;;3.03;;
72085;SDS011;64750;52.134;5.424;2023-03-01T10:30:43;4.30;;;3.00;;
72085;SDS011;64750;52.134;5.424;2023-03-01T10:33:13;4.38;;;3.20;;
72085;SDS011;64750;52.134;5.424;2023-03-01T10:35:42;4.00;;;3.03;;
72085;SDS011;64750;52.134;5.424;2023-03-01T10:38:09;4.03;;;3.08;;
72085;SDS011;64750;52.134;5.424;2023-03-01T10:43:40;2.75;;;2.53;;
72085;SDS011;64750;52.134;5.424;2023-03-01T10:49:22;2.67;;;2.20;;
72085;SDS011;64750;52.134;5.424;2023-03-01T10:51:50;3.15;;;2.33;;
72085;SDS011;64750;52.134;5.424;2023-03-01T10:54:19;2.30;;;2.10;;
72085;SDS011;64750;52.134;5.424;2023-03-01T10:56:49;2.10;;;1.90;;
72085;SDS011;64750;52.134;5.424;2023-03-01T11:04:57;1.83;;;1.70;;
72085;SDS011;64750;52.134;5.424;2023-03-01T11:07:28;3.90;;;2.10;;
72085;SDS011;64750;52.134;5.424;2023-03-01T11:09:55;2.10;;;1.90;;
72085;SDS011;64750;52.134;5.424;2023-03-01T11:12:22;2.38;;;1.90;;
72085;SDS011;64750;52.134;5.424;2023-03-01T11:14:51;2.15;;;1.98;;
72085;SDS011;64750;52.134;5.424;2023-03-01T11:17:28;2.20;;;2.00;;
72085;SDS011;64750;52.134;5.424;2023-03-01T11:20:06;2.37;;;1.73;;
72085;SDS011;64750;52.134;5.424;2023-03-01T11:22:42;3.08;;;1.60;;
72085;SDS011;64750;52.134;5.424;2023-03-01T11:25:14;2.38;;;1.90;;
72085;SDS011;64750;52.134;5.424;2023-03-01T11:27:41;2.15;;;1.58;;
72085;SDS011;64750;52.134;5.424;2023-03-01T11:32:50;5.00;;;2.47;;
72085;SDS011;64750;52.134;5.424;2023-03-01T11:35:28;2.35;;;1.60;;
72085;SDS011;64750;52.134;5.424;2023-03-01T11:38:02;3.33;;;1.50;;
72085;SDS011;64750;52.134;5.424;2023-03-01T11:40:43;4.07;;;1.90;;
72085;SDS011;64750;52.134;5.424;2023-03-01T11:43:15;3.30;;;1.92;;
72085;SDS011;64750;52.134;5.424;2023-03-01T11:46:18;2.67;;;1.60;;
72085;SDS011;64750;52.134;5.424;2023-03-01T11:57:20;2.45;;;2.25;;
72085;SDS011;64750;52.134;5.424;2023-03-01T12:22:25;2.15;;;1.95;;
72085;SDS011;64750;52.134;5.424;2023-03-01T12:28:04;5.67;;;2.30;;
72085;SDS011;64750;52.134;5.424;2023-03-01T12:31:10;2.28;;;2.08;;
72085;SDS011;64750;52.134;5.424;2023-03-01T12:33:57;2.17;;;1.95;;
72085;SDS011;64750;52.134;5.424;2023-03-01T12:36:39;2.28;;;1.88;;
72085;SDS011;64750;52.134;5.424;2023-03-01T12:42:18;2.23;;;2.03;;
72085;SDS011;64750;52.134;5.424;2023-03-01T12:45:04;2.60;;;2.10;;
72085;SDS011;64750;52.134;5.424;2023-03-01T12:50:42;2.35;;;2.13;;
72085;SDS011;64750;52.134;5.424;2023-03-01T12:53:18;2.67;;;2.42;;
72085;SDS011;64750;52.134;5.424;2023-03-01T12:55:49;5.53;;;2.57;;
72085;SDS011;64750;52.134;5.424;2023-03-01T12:58:24;4.50;;;3.00;;
72085;SDS011;64750;52.134;5.424;2023-03-01T13:01:08;2.40;;;2.20;;
72085;SDS011;64750;52.134;5.424;2023-03-01T13:09:23;3.30;;;2.60;;
72085;SDS011;64750;52.134;5.424;2023-03-01T13:11:57;2.30;;;2.10;;
72085;SDS011;64750;52.134;5.424;2023-03-01T13:17:01;2.55;;;2.35;;
72085;SDS011;64750;52.134;5.424;2023-03-01T13:19:28;2.45;;;2.25;;
72085;SDS011;64750;52.134;5.424;2023-03-01T13:21:58;2.27;;;2.07;;
72085;SDS011;64750;52.134;5.424;2023-03-01T13:24:38;2.47;;;2.10;;
72085;SDS011;64750;52.134;5.424;2023-03-01T13:29:52;3.08;;;2.40;;
72085;SDS011;64750;52.134;5.424;2023-03-01T13:32:35;3.10;;;2.33;;
72085;SDS011;64750;52.134;5.424;2023-03-01T13:37:37;2.08;;;1.98;;
72085;SDS011;64750;52.134;5.424;2023-03-01T13:40:56;3.03;;;2.70;;
72085;SDS011;64750;52.134;5.424;2023-03-01T13:42:54;2.97;;;2.50;;
72085;SDS011;64750;52.134;5.424;2023-03-01T13:45:33;2.53;;;2.33;;
72085;SDS011;64750;52.134;5.424;2023-03-01T13:48:08;2.63;;;2.37;;
72085;SDS011;64750;52.134;5.424;2023-03-01T13:50:37;2.60;;;2.40;;
72085;SDS011;64750;52.134;5.424;2023-03-01T13:53:12;4.20;;;2.42;;
72085;SDS011;64750;52.134;5.424;2023-03-01T13:55:44;4.15;;;2.67;;
72085;SDS011;64750;52.134;5.424;2023-03-01T14:00:59;2.23;;;2.03;;
72085;SDS011;64750;52.134;5.424;2023-03-01T14:03:26;2.88;;;2.50;;
72085;SDS011;64750;52.134;5.424;2023-03-01T14:06:06;2.65;;;2.45;;
72085;SDS011;64750;52.134;5.424;2023-03-01T14:08:42;2.50;;;2.15;;
72085;SDS011;64750;52.134;5.424;2023-03-01T14:16:24;2.63;;;2.38;;
72085;SDS011;64750;52.134;5.424;2023-03-01T14:19:16;2.38;;;2.17;;
72085;SDS011;64750;52.134;5.424;2023-03-01T14:22:01;2.95;;;2.00;;
72085;SDS011;64750;52.134;5.424;2023-03-01T14:24:38;2.60;;;2.40;;
72085;SDS011;64750;52.134;5.424;2023-03-01T14:27:11;4.70;;;2.67;;
72085;SDS011;64750;52.134;5.424;2023-03-01T14:29:39;2.47;;;2.28;;
72085;SDS011;64750;52.134;5.424;2023-03-01T14:32:17;2.35;;;1.92;;
72085;SDS011;64750;52.134;5.424;2023-03-01T14:34:47;3.25;;;2.00;;
72085;SDS011;64750;52.134;5.424;2023-03-01T14:37:19;4.30;;;2.42;;
72085;SDS011;64750;52.134;5.424;2023-03-01T14:39:53;2.67;;;2.30;;
72085;SDS011;64750;52.134;5.424;2023-03-01T14:42:21;2.95;;;2.40;;
72085;SDS011;64750;52.134;5.424;2023-03-01T14:44:50;2.95;;;2.40;;
72085;SDS011;64750;52.134;5.424;2023-03-01T14:49:59;2.75;;;2.22;;
72085;SDS011;64750;52.134;5.424;2023-03-01T14:52:47;4.13;;;2.73;;
72085;SDS011;64750;52.134;5.424;2023-03-01T14:55:19;7.45;;;2.65;;
72085;SDS011;64750;52.134;5.424;2023-03-01T14:57:51;2.67;;;2.47;;
72085;SDS011;64750;52.134;5.424;2023-03-01T15:02:45;3.20;;;2.80;;
72085;SDS011;64750;52.134;5.424;2023-03-01T15:05:14;2.77;;;2.40;;
72085;SDS011;64750;52.134;5.424;2023-03-01T15:07:42;4.72;;;2.72;;
72085;SDS011;64750;52.134;5.424;2023-03-01T15:10:19;3.08;;;2.70;;
72085;SDS011;64750;52.134;5.424;2023-03-01T15:12:48;2.55;;;2.35;;
72085;SDS011;64750;52.134;5.424;2023-03-01T15:17:53;3.77;;;2.60;;
72085;SDS011;64750;52.134;5.424;2023-03-01T15:20:22;2.60;;;2.40;;
72085;SDS011;64750;52.134;5.424;2023-03-01T15:22:52;3.00;;;2.10;;
72085;SDS011;64750;52.134;5.424;2023-03-01T15:25:30;2.78;;;2.00;;
72085;SDS011;64750;52.134;5.424;2023-03-01T15:27:59;3.10;;;2.10;;
72085;SDS011;64750;52.134;5.424;2023-03-01T15:30:29;2.57;;;1.90;;
72085;SDS011;64750;52.134;5.424;2023-03-01T15:33:45;3.67;;;2.70;;
72085;SDS011;64750;52.134;5.424;2023-03-01T15:35:58;4.13;;;2.60;;
72085;SDS011;64750;52.134;5.424;2023-03-01T15:41:03;4.90;;;3.17;;
72085;SDS011;64750;52.134;5.424;2023-03-01T15:43:39;3.17;;;2.97;;
72085;SDS011;64750;52.134;5.424;2023-03-01T15:46:17;3.60;;;3.03;;
72085;SDS011;64750;52.134;5.424;2023-03-01T15:48:45;2.40;;;2.20;;
72085;SDS011;64750;52.134;5.424;2023-03-01T15:51:15;2.97;;;2.63;;
72085;SDS011;64750;52.134;5.424;2023-03-01T15:53:43;4.15;;;2.83;;
72085;SDS011;64750;52.134;5.424;2023-03-01T15:56:19;3.33;;;3.03;;
72085;SDS011;64750;52.134;5.424;2023-03-01T15:58:46;2.70;;;2.50;;
72085;SDS011;64750;52.134;5.424;2023-03-01T16:01:13;3.38;;;2.88;;
72085;SDS011;64750;52.134;5.424;2023-03-01T16:03:43;2.95;;;2.70;;
72085;SDS011;64750;52.134;5.424;2023-03-01T16:06:10;2.97;;;2.60;;
72085;SDS011;64750;52.134;5.424;2023-03-01T16:08:37;3.60;;;3.07;;
72085;SDS011;64750;52.134;5.424;2023-03-01T16:11:05;3.75;;;3.15;;
72085;SDS011;64750;52.134;5.424;2023-03-01T16:13:40;3.25;;;2.95;;
72085;SDS011;64750;52.134;5.424;2023-03-01T16:16:07;3.15;;;2.63;;
72085;SDS011;64750;52.134;5.424;2023-03-01T16:18:38;3.17;;;2.50;;
72085;SDS011;64750;52.134;5.424;2023-03-01T16:21:05;3.33;;;3.03;;
72085;SDS011;64750;52.134;5.424;2023-03-01T16:23:32;3.55;;;3.05;;
72085;SDS011;64750;52.134;5.424;2023-03-01T16:25:59;3.92;;;3.60;;
72085;SDS011;64750;52.134;5.424;2023-03-01T16:28:26;3.38;;;3.08;;
72085;SDS011;64750;52.134;5.424;2023-03-01T16:30:54;4.38;;;3.20;;
72085;SDS011;64750;52.134;5.424;2023-03-01T16:33:21;3.80;;;3.40;;
72085;SDS011;64750;52.134;5.424;2023-03-01T16:36:00;3.70;;;3.38;;
72085;SDS011;64750;52.134;5.424;2023-03-01T16:38:28;4.25;;;3.45;;
72085;SDS011;64750;52.134;5.424;2023-03-01T16:40:57;4.43;;;3.30;;
72085;SDS011;64750;52.134;5.424;2023-03-01T16:43:23;3.85;;;3.45;;
72085;SDS011;64750;52.134;5.424;2023-03-01T16:45:50;3.93;;;3.27;;
72085;SDS011;64750;52.134;5.424;2023-03-01T16:48:16;3.58;;;2.92;;
72085;SDS011;64750;52.134;5.424;2023-03-01T16:50:43;4.57;;;3.33;;
72085;SDS011;64750;52.134;5.424;2023-03-01T16:53:09;5.80;;;3.33;;
72085;SDS011;64750;52.134;5.424;2023-03-01T16:55:36;5.05;;;3.28;;
72085;SDS011;64750;52.134;5.424;2023-03-01T16:58:04;3.53;;;3.20;;
72085;SDS011;64750;52.134;5.424;2023-03-01T17:00:31;4.22;;;3.40;;